Map

Track Data

SID SEASON NUMBER BASIN SUBBASIN NAME ISO_TIME NATURE LAT LON WMO_WIND WMO_PRES WMO_AGENCY TRACK_TYPE DIST2LAND LANDFALL IFLAG USA_AGENCY USA_ATCF_ID USA_LAT USA_LON USA_RECORD USA_STATUS USA_WIND USA_PRES USA_SSHS USA_R34_NE USA_R34_SE USA_R34_SW USA_R34_NW USA_R50_NE USA_R50_SE USA_R50_SW USA_R50_NW USA_R64_NE USA_R64_SE USA_R64_SW USA_R64_NW USA_POCI USA_ROCI USA_RMW USA_EYE TOKYO_LAT TOKYO_LON TOKYO_GRADE TOKYO_WIND TOKYO_PRES TOKYO_R50_DIR TOKYO_R50_LONG TOKYO_R50_SHORT TOKYO_R30_DIR TOKYO_R30_LONG TOKYO_R30_SHORT TOKYO_LAND CMA_LAT CMA_LON CMA_CAT CMA_WIND CMA_PRES HKO_LAT HKO_LON HKO_CAT HKO_WIND HKO_PRES NEWDELHI_LAT NEWDELHI_LON NEWDELHI_GRADE NEWDELHI_WIND NEWDELHI_PRES NEWDELHI_CI NEWDELHI_DP NEWDELHI_POCI REUNION_LAT REUNION_LON REUNION_TYPE REUNION_WIND REUNION_PRES REUNION_TNUM REUNION_CI REUNION_RMW REUNION_R34_NE REUNION_R34_SE REUNION_R34_SW REUNION_R34_NW REUNION_R50_NE REUNION_R50_SE REUNION_R50_SW REUNION_R50_NW REUNION_R64_NE REUNION_R64_SE REUNION_R64_SW REUNION_R64_NW BOM_LAT BOM_LON BOM_TYPE BOM_WIND BOM_PRES BOM_TNUM BOM_CI BOM_RMW BOM_R34_NE BOM_R34_SE BOM_R34_SW BOM_R34_NW BOM_R50_NE BOM_R50_SE BOM_R50_SW BOM_R50_NW BOM_R64_NE BOM_R64_SE BOM_R64_SW BOM_R64_NW BOM_ROCI BOM_POCI BOM_EYE BOM_POS_METHOD BOM_PRES_METHOD NADI_LAT NADI_LON NADI_CAT NADI_WIND NADI_PRES WELLINGTON_LAT WELLINGTON_LON WELLINGTON_WIND WELLINGTON_PRES DS824_LAT DS824_LON DS824_STAGE DS824_WIND DS824_PRES TD9636_LAT TD9636_LON TD9636_STAGE TD9636_WIND TD9636_PRES TD9635_LAT TD9635_LON TD9635_WIND TD9635_PRES TD9635_ROCI NEUMANN_LAT NEUMANN_LON NEUMANN_CLASS NEUMANN_WIND NEUMANN_PRES MLC_LAT MLC_LON MLC_CLASS MLC_WIND MLC_PRES USA_GUST BOM_GUST BOM_GUST_PER REUNION_GUST REUNION_GUST_PER USA_SEAHGT USA_SEARAD_NE USA_SEARAD_SE USA_SEARAD_SW USA_SEARAD_NW STORM_SPEED STORM_DIR
1944198N14130 1944 36 WP MM NOT_NAMED 1944-07-15 12:00:00 NR 13.7000 129.500 main 465 449 __________O___ -1 13.7000 129.500 4 6 308
1944198N14130 1944 36 WP MM NOT_NAMED 1944-07-15 15:00:00 NR 13.8846 129.255 main 453 429 __________P___ -1 13.8846 129.255 4 6 308
1944198N14130 1944 36 WP MM NOT_NAMED 1944-07-15 18:00:00 NR 14.0753 129.008 main 434 421 __________P___ -1 14.0753 129.008 4 6 309
1944198N14130 1944 36 WP MM NOT_NAMED 1944-07-15 21:00:00 NR 14.2783 128.757 main 427 414 __________P___ -1 14.2783 128.757 4 7 311
1944198N14130 1944 36 WP MM NOT_NAMED 1944-07-16 00:00:00 NR 14.5000 128.500 main 414 404 __________O___ -1 14.5000 128.500 4 7 313
1944198N14130 1944 36 WP MM NOT_NAMED 1944-07-16 03:00:00 NR 14.7435 128.235 main 404 403 __________P___ -1 14.7435 128.235 4 7 313
1944198N14130 1944 36 WP MM NOT_NAMED 1944-07-16 06:00:00 NR 14.9996 127.952 main 406 383 __________P___ -1 14.9996 127.952 4 8 312
1944198N14130 1944 36 WP MM NOT_NAMED 1944-07-16 09:00:00 NR 15.2559 127.644 main 378 359 __________P___ -1 15.2559 127.644 4 8 308
1944198N14130 1944 36 WP MM NOT_NAMED 1944-07-16 12:00:00 NR 15.5000 127.300 main 359 335 __________O___ -1 15.5000 127.300 4 9 304
1944198N14130 1944 36 WP MM NOT_NAMED 1944-07-16 15:00:00 NR 15.7306 126.915 main 335 317 __________P___ -1 15.7306 126.915 4 9 300
1944198N14130 1944 36 WP MM NOT_NAMED 1944-07-16 18:00:00 NR 15.9450 126.495 main 317 304 __________P___ -1 15.9450 126.495 4 9 296
1944198N14130 1944 36 WP MM NOT_NAMED 1944-07-16 21:00:00 NR 16.1368 126.053 main 304 292 __________P___ -1 16.1368 126.053 4 9 292
1944198N14130 1944 36 WP MM NOT_NAMED 1944-07-17 00:00:00 NR 16.3000 125.600 main 292 285 __________O___ -1 16.3000 125.600 4 9 289
1944198N14130 1944 36 WP MM NOT_NAMED 1944-07-17 03:00:00 NR 16.4407 125.157 main 285 238 __________P___ -1 16.4407 125.157 4 9 286
1944198N14130 1944 36 WP MM NOT_NAMED 1944-07-17 06:00:00 NR 16.5522 124.707 main 236 194 __________P___ -1 16.5522 124.707 4 9 283
1944198N14130 1944 36 WP MM NOT_NAMED 1944-07-17 09:00:00 NR 16.6376 124.254 main 194 140 __________P___ -1 16.6376 124.254 4 9 280
1944198N14130 1944 36 WP MM NOT_NAMED 1944-07-17 12:00:00 NR 16.7000 123.800 main 140 98 __________O___ -1 16.7000 123.800 4 9 277
1944198N14130 1944 36 WP MM NOT_NAMED 1944-07-17 15:00:00 NR 16.7505 123.338 main 85 44 __________P___ -1 16.7505 123.338 4 9 275
1944198N14130 1944 36 WP MM NOT_NAMED 1944-07-17 18:00:00 NR 16.7799 122.877 main 44 10 __________P___ -1 16.7799 122.877 4 9 273
1944198N14130 1944 36 WP MM NOT_NAMED 1944-07-17 21:00:00 NR 16.7943 122.428 main 0 0 __________P___ -1 16.7943 122.428 4 8 271
1944198N14130 1944 36 WP MM NOT_NAMED 1944-07-18 00:00:00 NR 16.8000 122.000 main 0 0 __________O___ -1 16.8000 122.000 4 8 271
1944198N14130 1944 36 WP MM NOT_NAMED 1944-07-18 03:00:00 NR 16.8028 121.595 main 0 0 __________P___ -1 16.8028 121.595 4 8 270
1944198N14130 1944 36 WP MM NOT_NAMED 1944-07-18 06:00:00 NR 16.7996 121.212 main 0 0 __________P___ -1 16.7996 121.212 4 7 270
1944198N14130 1944 36 WP MM NOT_NAMED 1944-07-18 09:00:00 NR 16.7966 120.848 main 0 0 __________P___ -1 16.7966 120.848 4 7 270
1944198N14130 1944 36 WP MM NOT_NAMED 1944-07-18 12:00:00 NR 16.8000 120.500 main 0 0 __________O___ -1 16.8000 120.500 4 6 271
1944198N14130 1944 36 WP MM NOT_NAMED 1944-07-18 15:00:00 NR 16.8091 120.189 main 21 21 __________P___ -1 16.8091 120.189 4 6 273
1944198N14130 1944 36 WP MM NOT_NAMED 1944-07-18 18:00:00 NR 16.8266 119.887 main 48 48 __________P___ -1 16.8266 119.887 4 6 275
1944198N14130 1944 36 WP MM NOT_NAMED 1944-07-18 21:00:00 NR 16.8558 119.567 main 70 70 __________P___ -1 16.8558 119.567 4 7 276
1944198N14130 1944 36 WP MM NOT_NAMED 1944-07-19 00:00:00 NR 16.9000 119.200 main 92 92 __________O___ -1 16.9000 119.200 4 8 277
1944198N14130 1944 36 WP MM NOT_NAMED 1944-07-19 03:00:00 NR 16.9487 118.742 main 135 135 __________P___ -1 16.9487 118.742 4 9 277
1944198N14130 1944 36 WP MM NOT_NAMED 1944-07-19 06:00:00 NR 17.0129 118.237 main 187 187 __________P___ -1 17.0129 118.237 4 10 278
1944198N14130 1944 36 WP MM NOT_NAMED 1944-07-19 09:00:00 NR 17.0956 117.714 main 240 240 __________P___ -1 17.0956 117.714 4 10 281
1944198N14130 1944 36 WP MM NOT_NAMED 1944-07-19 12:00:00 NR 17.2000 117.200 main 294 294 __________O___ -1 17.2000 117.200 4 10 282
1944198N14130 1944 36 WP MM NOT_NAMED 1944-07-19 15:00:00 NR 17.3040 116.703 main 348 348 __________P___ -1 17.3040 116.703 4 10 284
1944198N14130 1944 36 WP MM NOT_NAMED 1944-07-19 18:00:00 NR 17.4326 116.225 main 402 402 __________P___ -1 17.4326 116.225 4 9 288
1944198N14130 1944 36 WP MM NOT_NAMED 1944-07-19 21:00:00 NR 17.5948 115.784 main 449 449 __________P___ -1 17.5948 115.784 4 9 295
1944198N14130 1944 36 WP MM NOT_NAMED 1944-07-20 00:00:00 NR 17.8000 115.400 main 497 467 __________O___ -1 17.8000 115.400 4 8 304
1944198N14130 1944 36 WP MM NOT_NAMED 1944-07-20 03:00:00 NR 18.0524 115.076 main 462 425 __________P___ -1 18.0524 115.076 4 8 314
1944198N14130 1944 36 WP MM NOT_NAMED 1944-07-20 06:00:00 NR 18.3470 114.810 main 425 394 __________P___ -1 18.3470 114.810 4 8 323
1944198N14130 1944 36 WP MM NOT_NAMED 1944-07-20 09:00:00 NR 18.6681 114.589 main 391 355 __________P___ -1 18.6681 114.589 4 8 329
1944198N14130 1944 36 WP MM NOT_NAMED 1944-07-20 12:00:00 NR 19.0000 114.400 main 355 316 __________O___ -1 19.0000 114.400 4 7 333
1944198N14130 1944 36 WP MM NOT_NAMED 1944-07-20 15:00:00 NR 19.3296 114.233 main 316 281 __________P___ -1 19.3296 114.233 4 7 335
1944198N14130 1944 36 WP MM NOT_NAMED 1944-07-20 18:00:00 NR 19.6552 114.080 main 271 232 __________P___ -1 19.6552 114.080 4 7 337
1944198N14130 1944 36 WP MM NOT_NAMED 1944-07-20 21:00:00 NR 19.9783 113.938 main 232 197 __________P___ -1 19.9783 113.938 4 7 338
1944198N14130 1944 36 WP MM NOT_NAMED 1944-07-21 00:00:00 NR 20.3000 113.800 main 197 __________O___ -1 20.3000 113.800 4 7 338

Digital Typhoon Data and Search

About IBTrACS Database

This database is a web-friendly format of International Best Track Archive for Climate Stewardship (IBTrACS), a global best track data archive curated by NOAA dating back to 1842.

Updated: 2021-11-26